Time;durP1;ratioP1;P1;durP2;ratioP2;P2;SDS_P1;SDS_P2;PMS_P1;PMS_P2;Temp;Humidity;BMP_temperature;BMP_pressure;BME280_temperature;BME280_humidity;BME280_pressure;Samples;Min_cycle;Max_cycle;Signal;HPM_P1;HPM_P2
2022/08/01 00:00:16;;;;;;;3.53;2.57;;;16.50;99.90;;;;;;4992491;28;20211;-73
2022/08/01 00:02:44;;;;;;;2.53;2.33;;;16.50;99.90;;;;;;4991860;28;20208;-73
2022/08/01 00:05:11;;;;;;;4.93;2.37;;;16.50;99.90;;;;;;4981528;28;20204;-74
2022/08/01 00:07:38;;;;;;;8.43;6.30;;;16.50;99.90;;;;;;4994307;28;20263;-74
2022/08/01 00:10:07;;;;;;;5.47;3.57;;;16.40;99.90;;;;;;4994781;28;20204;-74
2022/08/01 00:12:34;;;;;;;3.23;2.30;;;16.40;99.90;;;;;;4989860;28;20284;-73
2022/08/01 00:15:01;;;;;;;4.77;2.43;;;16.40;99.90;;;;;;4994584;28;20214;-73
2022/08/01 00:17:28;;;;;;;5.23;2.17;;;16.40;99.90;;;;;;4994091;28;20227;-73
2022/08/01 00:19:56;;;;;;;3.93;2.37;;;16.40;99.90;;;;;;4994620;28;20229;-73
2022/08/01 00:22:22;;;;;;;4.00;2.00;;;16.40;99.90;;;;;;4991466;28;20548;-73
2022/08/01 00:24:49;;;;;;;6.07;2.40;;;16.30;99.90;;;;;;4978684;28;20562;-73
2022/08/01 00:27:16;;;;;;;5.97;2.50;;;16.30;99.90;;;;;;4991504;28;20219;-73
2022/08/01 00:29:43;;;;;;;4.20;2.07;;;16.30;99.90;;;;;;4991960;28;20216;-72
2022/08/01 00:32:10;;;;;;;2.70;2.40;;;16.30;99.90;;;;;;4985806;28;20224;-73
2022/08/01 00:34:36;;;;;;;3.40;2.10;;;16.20;99.90;;;;;;4996322;28;20206;-73
2022/08/01 00:37:04;;;;;;;2.40;2.10;;;16.30;99.90;;;;;;4996319;28;20218;-72
2022/08/01 00:39:32;;;;;;;4.03;2.73;;;16.20;99.90;;;;;;4997486;28;20204;-73
2022/08/01 00:41:59;;;;;;;2.40;2.17;;;16.20;99.90;;;;;;4996298;28;20560;-73
2022/08/01 00:44:26;;;;;;;3.10;1.93;;;16.20;99.90;;;;;;4993445;28;20216;-72
2022/08/01 00:46:53;;;;;;;5.93;2.67;;;16.20;99.90;;;;;;4988060;28;20212;-72
2022/08/01 00:49:20;;;;;;;4.73;2.30;;;16.20;99.90;;;;;;4983543;28;20587;-72
2022/08/01 00:51:46;;;;;;;2.70;2.20;;;16.10;99.90;;;;;;4994882;28;20231;-73
2022/08/01 00:54:15;;;;;;;3.67;2.37;;;16.20;99.90;;;;;;4997194;28;20223;-73
2022/08/01 00:56:42;;;;;;;5.57;2.57;;;16.10;99.90;;;;;;4997911;28;20574;-73
2022/08/01 00:59:09;;;;;;;2.53;2.30;;;16.10;99.90;;;;;;4998384;28;20234;-73
2022/08/01 01:01:36;;;;;;;6.60;2.70;;;16.10;99.90;;;;;;4993875;28;20748;-73
2022/08/01 01:04:03;;;;;;;4.70;2.30;;;16.10;99.90;;;;;;4996963;28;20204;-73
2022/08/01 01:06:41;;;;;;;2.23;2.10;;;16.10;99.90;;;;;;4991567;28;20212;-72
2022/08/01 01:09:24;;;;;;;6.67;2.47;;;16.10;99.90;;;;;;4996136;28;20203;-73
2022/08/01 01:12:01;;;;;;;4.27;2.37;;;16.10;99.90;;;;;;4993720;28;20607;-72
2022/08/01 01:14:34;;;;;;;7.77;2.57;;;16.10;99.90;;;;;;4998050;28;20203;-72
2022/08/01 01:17:03;;;;;;;2.60;2.40;;;16.10;99.90;;;;;;4996786;28;20212;-73
2022/08/01 01:19:34;;;;;;;4.40;2.40;;;16.10;99.90;;;;;;5005044;28;20338;-73
2022/08/01 01:22:23;;;;;;;2.97;2.47;;;16.10;99.90;;;;;;4984406;28;20219;-74
2022/08/01 01:25:05;;;;;;;3.83;2.60;;;16.10;99.90;;;;;;4998171;28;20252;-73
2022/08/01 01:27:46;;;;;;;4.47;2.30;;;16.10;99.90;;;;;;4997419;28;20211;-73
2022/08/01 01:30:14;;;;;;;2.60;2.40;;;16.10;99.90;;;;;;4997267;28;20223;-73
2022/08/01 01:32:45;;;;;;;3.90;2.60;;;16.00;99.90;;;;;;4996355;28;20588;-73
2022/08/01 01:35:17;;;;;;;3.17;2.57;;;16.00;99.90;;;;;;4998770;28;20210;-73
2022/08/01 01:37:46;;;;;;;2.40;2.13;;;16.00;99.90;;;;;;4986342;28;20200;-73
2022/08/01 01:40:15;;;;;;;3.03;2.70;;;15.90;99.90;;;;;;4980095;28;20217;-73
2022/08/01 01:42:43;;;;;;;3.13;2.20;;;16.00;99.90;;;;;;4993097;28;20219;-74
2022/08/01 01:45:10;;;;;;;4.67;3.27;;;15.90;99.90;;;;;;4989198;28;20295;-74
2022/08/01 01:47:39;;;;;;;5.83;2.33;;;15.90;99.90;;;;;;4994162;28;20212;-72
2022/08/01 01:50:08;;;;;;;3.10;2.43;;;15.90;99.90;;;;;;4993443;28;20574;-73
2022/08/01 01:52:38;;;;;;;5.93;2.30;;;15.80;99.90;;;;;;4990075;28;20232;-73
2022/08/01 01:55:08;;;;;;;5.47;2.80;;;15.80;99.90;;;;;;4996447;28;20244;-73
2022/08/01 01:57:38;;;;;;;4.40;2.90;;;15.80;99.90;;;;;;4982254;28;20659;-72
2022/08/01 02:00:07;;;;;;;4.80;2.43;;;15.70;99.90;;;;;;4992686;28;20208;-72
2022/08/01 02:02:35;;;;;;;4.97;2.37;;;15.70;99.90;;;;;;4994783;28;20307;-72
2022/08/01 02:05:04;;;;;;;5.43;2.70;;;15.60;99.90;;;;;;4995516;28;20218;-72
2022/08/01 02:07:33;;;;;;;5.50;2.30;;;15.60;99.90;;;;;;4996403;28;20215;-72
2022/08/01 02:10:02;;;;;;;11.37;2.70;;;15.60;99.90;;;;;;4984807;28;20534;-72
2022/08/01 02:12:33;;;;;;;3.90;2.50;;;15.50;99.90;;;;;;4989440;28;20231;-72
2022/08/01 02:15:03;;;;;;;5.13;2.37;;;15.50;99.90;;;;;;4995993;28;20208;-72
2022/08/01 02:17:31;;;;;;;5.60;2.50;;;15.50;99.90;;;;;;4995489;28;20210;-72
2022/08/01 02:19:59;;;;;;;3.03;2.40;;;15.50;99.90;;;;;;4999616;28;20203;-73
2022/08/01 02:22:32;;;;;;;4.37;2.13;;;15.50;99.90;;;;;;4994776;28;20215;-72
2022/08/01 02:25:04;;;;;;;3.20;1.93;;;15.40;99.90;;;;;;4981788;28;20215;-72
2022/08/01 02:27:35;;;;;;;4.77;2.30;;;15.40;99.90;;;;;;4995086;28;20215;-71
2022/08/01 02:30:05;;;;;;;3.80;2.30;;;15.30;99.90;;;;;;4998495;28;20211;-72
2022/08/01 02:32:37;;;;;;;3.23;2.43;;;15.30;99.90;;;;;;4999466;28;20351;-72
2022/08/01 02:35:07;;;;;;;2.73;2.30;;;15.30;99.90;;;;;;4999450;28;20276;-72
2022/08/01 02:37:41;;;;;;;5.57;2.40;;;15.30;99.90;;;;;;4991188;28;20273;-72
2022/08/01 02:40:10;;;;;;;6.20;2.33;;;15.20;99.90;;;;;;4992296;28;20278;-72
2022/08/01 02:42:38;;;;;;;2.60;2.27;;;15.20;99.90;;;;;;4993271;28;20263;-72
2022/08/01 02:45:08;;;;;;;4.33;2.57;;;15.10;99.90;;;;;;4988741;28;20204;-72
2022/08/01 02:47:36;;;;;;;5.67;2.77;;;15.10;99.90;;;;;;4992311;28;20211;-72
2022/08/01 02:50:04;;;;;;;3.80;2.47;;;15.10;99.90;;;;;;4985484;28;20209;-73
2022/08/01 02:52:33;;;;;;;5.93;2.87;;;15.00;99.90;;;;;;4989497;28;20298;-73
2022/08/01 02:55:03;;;;;;;4.03;2.63;;;15.00;99.90;;;;;;4994967;28;20243;-73
2022/08/01 02:57:31;;;;;;;3.43;2.73;;;15.00;99.90;;;;;;4994729;28;20200;-73
2022/08/01 02:59:59;;;;;;;6.27;2.70;;;15.00;99.90;;;;;;4992939;28;20212;-72
2022/08/01 03:02:28;;;;;;;5.80;2.40;;;14.90;99.90;;;;;;4993202;28;20271;-72
2022/08/01 03:04:56;;;;;;;2.77;2.30;;;14.90;99.90;;;;;;4994301;28;20660;-72
2022/08/01 03:07:23;;;;;;;5.90;2.87;;;14.90;99.90;;;;;;4993663;28;20204;-72
2022/08/01 03:09:50;;;;;;;4.20;2.40;;;14.90;99.90;;;;;;4994184;28;20204;-72
2022/08/01 03:12:23;;;;;;;3.53;2.60;;;14.90;99.90;;;;;;4992227;28;20231;-73
2022/08/01 03:14:54;;;;;;;3.60;2.43;;;14.90;99.90;;;;;;4981417;28;20196;-74
2022/08/01 03:17:23;;;;;;;4.03;2.57;;;14.80;99.90;;;;;;4994031;28;20203;-73
2022/08/01 03:19:52;;;;;;;6.17;2.70;;;14.80;99.90;;;;;;5005462;28;20219;-73
2022/08/01 03:22:22;;;;;;;6.03;2.90;;;14.80;99.90;;;;;;4983919;28;20204;-72
2022/08/01 03:24:52;;;;;;;2.90;2.60;;;14.80;99.90;;;;;;4995900;28;20212;-72
2022/08/01 03:27:24;;;;;;;3.80;2.67;;;14.80;99.90;;;;;;4995826;28;20207;-74
2022/08/01 03:29:52;;;;;;;3.53;2.70;;;14.70;99.90;;;;;;5000792;28;20306;-74
2022/08/01 03:32:20;;;;;;;4.13;3.00;;;14.70;99.90;;;;;;4999102;28;20235;-74
2022/08/01 03:34:47;;;;;;;7.90;2.97;;;14.70;99.90;;;;;;5000519;28;20291;-73
2022/08/01 03:37:24;;;;;;;5.33;2.70;;;14.70;99.90;;;;;;4999393;28;20215;-74
2022/08/01 03:39:56;;;;;;;2.77;2.57;;;14.70;99.90;;;;;;5000694;28;20305;-74
2022/08/01 03:42:32;;;;;;;3.80;3.17;;;14.70;99.90;;;;;;5001991;28;20211;-75
2022/08/01 03:45:03;;;;;;;6.90;3.63;;;14.70;99.90;;;;;;4993630;28;20212;-73
2022/08/01 03:47:33;;;;;;;4.77;2.40;;;14.80;99.90;;;;;;4992871;28;20200;-74
2022/08/01 03:50:02;;;;;;;6.47;2.73;;;14.80;99.90;;;;;;4981240;28;20231;-74
2022/08/01 03:52:31;;;;;;;3.10;2.80;;;14.80;99.90;;;;;;4993548;28;20238;-74
2022/08/01 03:55:02;;;;;;;3.43;2.87;;;14.80;99.90;;;;;;4999478;28;20240;-73
2022/08/01 03:57:30;;;;;;;4.53;3.23;;;14.80;99.90;;;;;;4987143;28;20208;-73
2022/08/01 03:59:59;;;;;;;5.87;3.43;;;14.80;99.90;;;;;;4998309;28;20299;-73
2022/08/01 04:02:27;;;;;;;9.33;3.60;;;14.80;99.90;;;;;;5002121;28;20208;-72
2022/08/01 04:04:55;;;;;;;7.97;2.97;;;14.90;99.90;;;;;;4997401;28;20204;-73
2022/08/01 04:07:23;;;;;;;6.97;3.40;;;14.90;99.90;;;;;;4998401;28;20665;-73
2022/08/01 04:09:50;;;;;;;5.00;3.17;;;14.90;99.90;;;;;;4985399;28;20286;-73
2022/08/01 04:12:17;;;;;;;6.00;2.97;;;14.90;99.90;;;;;;4999559;28;20231;-74
2022/08/01 04:14:45;;;;;;;3.20;2.90;;;15.00;99.90;;;;;;4998316;28;20220;-74
2022/08/01 04:17:12;;;;;;;6.17;3.03;;;15.00;99.90;;;;;;4999384;28;20211;-74
2022/08/01 04:19:41;;;;;;;3.07;2.77;;;15.00;99.90;;;;;;5004788;28;20211;-74
2022/08/01 04:22:09;;;;;;;6.03;3.33;;;15.10;99.90;;;;;;4999364;28;20204;-74
2022/08/01 04:24:38;;;;;;;5.30;3.20;;;15.10;99.90;;;;;;5000811;28;20216;-74
2022/08/01 04:27:10;;;;;;;5.57;3.27;;;15.20;99.90;;;;;;4999737;28;20227;-74
2022/08/01 04:29:38;;;;;;;9.37;2.90;;;15.20;99.90;;;;;;4991774;28;20204;-74
2022/08/01 04:32:09;;;;;;;8.80;3.40;;;15.20;99.90;;;;;;4995831;28;20234;-73
2022/08/01 04:34:40;;;;;;;3.80;2.90;;;15.30;99.90;;;;;;4992180;28;20604;-74
2022/08/01 04:37:09;;;;;;;3.83;3.10;;;15.30;99.90;;;;;;4994736;28;20708;-74
2022/08/01 04:39:39;;;;;;;3.67;3.17;;;15.40;99.90;;;;;;4988875;28;20223;-74
2022/08/01 04:42:07;;;;;;;4.40;3.20;;;15.40;99.90;;;;;;4998885;28;20234;-73
2022/08/01 04:44:35;;;;;;;4.10;2.77;;;15.40;99.90;;;;;;4996949;28;20283;-72
2022/08/01 04:47:03;;;;;;;4.37;3.40;;;15.50;99.90;;;;;;4996893;28;20215;-72
2022/08/01 04:49:32;;;;;;;7.50;3.07;;;15.50;99.90;;;;;;4997541;28;20208;-72
2022/08/01 04:51:59;;;;;;;3.17;2.97;;;15.60;99.90;;;;;;4995922;28;20238;-72
2022/08/01 04:54:27;;;;;;;3.30;3.00;;;15.60;99.90;;;;;;4996990;28;20236;-73
2022/08/01 04:56:55;;;;;;;6.20;3.00;;;15.70;99.90;;;;;;4998347;28;20210;-73
2022/08/01 04:59:40;;;;;;;4.60;3.30;;;15.70;99.90;;;;;;4998276;28;20214;-73
2022/08/01 05:02:08;;;;;;;3.57;3.33;;;15.80;99.90;;;;;;4996683;28;20207;-73
2022/08/01 05:04:37;;;;;;;3.37;3.07;;;15.80;99.90;;;;;;4987033;28;20222;-72
2022/08/01 05:07:04;;;;;;;3.80;3.27;;;15.80;99.90;;;;;;5000912;28;20553;-74
2022/08/01 05:09:31;;;;;;;5.60;3.13;;;15.90;99.90;;;;;;5000710;28;20251;-73
2022/08/01 05:11:59;;;;;;;6.13;3.63;;;15.80;99.90;;;;;;4991456;28;20228;-73
2022/08/01 05:14:26;;;;;;;3.97;3.57;;;15.80;99.90;;;;;;4995791;28;20219;-73
2022/08/01 05:16:53;;;;;;;4.33;3.27;;;15.80;99.90;;;;;;4993641;28;20687;-74
2022/08/01 05:19:21;;;;;;;3.93;3.53;;;15.80;99.90;;;;;;5009541;28;20211;-74
2022/08/01 05:21:49;;;;;;;4.13;3.53;;;15.80;99.90;;;;;;5002983;28;20238;-74
2022/08/01 05:24:16;;;;;;;4.13;3.73;;;15.70;99.90;;;;;;4999466;28;20633;-73
2022/08/01 05:26:43;;;;;;;7.70;4.00;;;15.70;99.90;;;;;;4991877;28;20243;-72
2022/08/01 05:29:09;;;;;;;4.50;4.07;;;15.60;99.90;;;;;;4984703;28;20216;-72
2022/08/01 05:31:36;;;;;;;6.20;3.90;;;15.60;99.90;;;;;;4990872;28;20208;-73
2022/08/01 05:34:04;;;;;;;4.50;3.97;;;15.70;99.90;;;;;;4995926;28;20573;-73
2022/08/01 05:36:30;;;;;;;5.57;3.67;;;15.70;99.90;;;;;;4998875;28;20223;-73
2022/08/01 05:38:59;;;;;;;4.07;3.67;;;15.80;99.90;;;;;;4998288;28;20218;-74
2022/08/01 05:41:26;;;;;;;4.20;3.80;;;15.90;99.90;;;;;;4999829;28;20208;-74
2022/08/01 05:43:53;;;;;;;5.00;4.13;;;15.90;99.90;;;;;;4993343;28;20218;-73
2022/08/01 05:46:19;;;;;;;5.10;3.93;;;16.10;99.90;;;;;;4988785;28;20208;-73
2022/08/01 05:48:46;;;;;;;5.97;3.77;;;16.20;99.90;;;;;;4988268;28;20209;-73
2022/08/01 05:51:13;;;;;;;6.23;4.00;;;16.30;99.90;;;;;;5000407;28;20212;-74
2022/08/01 05:53:40;;;;;;;5.40;3.63;;;16.30;99.90;;;;;;4989492;28;20303;-73
2022/08/01 05:56:10;;;;;;;5.03;3.47;;;16.40;99.90;;;;;;4994076;28;20776;-72
2022/08/01 05:58:37;;;;;;;3.90;3.50;;;16.50;99.90;;;;;;4998292;28;20564;-72
2022/08/01 06:01:04;;;;;;;3.80;2.90;;;16.50;99.90;;;;;;4998645;28;20663;-72
2022/08/01 06:03:33;;;;;;;3.50;3.20;;;16.60;99.90;;;;;;4996216;28;20207;-73
2022/08/01 06:05:59;;;;;;;4.40;3.03;;;16.70;99.90;;;;;;4996431;28;20270;-73
2022/08/01 06:08:26;;;;;;;3.83;2.80;;;16.80;99.90;;;;;;4991666;28;20238;-72
2022/08/01 06:10:53;;;;;;;2.47;2.27;;;16.90;99.90;;;;;;4990069;28;20219;-67
2022/08/01 06:13:21;;;;;;;2.97;2.60;;;17.00;99.90;;;;;;4991767;28;20255;-67
2022/08/01 06:15:48;;;;;;;3.20;2.73;;;17.10;99.90;;;;;;4991569;28;20204;-67
2022/08/01 06:18:16;;;;;;;3.23;2.33;;;17.10;99.90;;;;;;4983120;28;20213;-72
2022/08/01 06:20:43;;;;;;;2.80;2.40;;;17.30;99.90;;;;;;5001662;28;20219;-72
2022/08/01 06:23:09;;;;;;;3.07;2.80;;;17.40;99.90;;;;;;4995115;28;20215;-72
2022/08/01 06:25:37;;;;;;;3.17;2.63;;;17.50;99.90;;;;;;5000204;28;20219;-72
2022/08/01 06:28:04;;;;;;;2.53;2.10;;;17.60;99.90;;;;;;4995870;28;20231;-72
2022/08/01 06:30:32;;;;;;;4.88;2.03;;;17.70;99.90;;;;;;4997118;28;20585;-71
2022/08/01 06:32:59;;;;;;;2.47;2.00;;;17.80;99.90;;;;;;4995578;28;20231;-71
2022/08/01 06:35:26;;;;;;;3.10;2.08;;;17.90;99.90;;;;;;4989699;28;20204;-67
2022/08/01 06:37:53;;;;;;;3.27;2.30;;;18.00;99.90;;;;;;4992674;28;20219;-67
2022/08/01 06:40:20;;;;;;;2.50;2.30;;;18.10;99.90;;;;;;4988918;28;20216;-67
2022/08/01 06:42:47;;;;;;;4.90;2.30;;;18.10;99.90;;;;;;4996204;28;20219;-73
2022/08/01 06:45:15;;;;;;;3.28;1.70;;;18.20;99.90;;;;;;4993305;28;20275;-74
2022/08/01 06:47:44;;;;;;;4.47;2.47;;;18.30;99.90;;;;;;4997655;28;20215;-67
2022/08/01 06:50:13;;;;;;;3.38;2.30;;;18.40;99.90;;;;;;4991422;28;20208;-70
2022/08/01 06:52:40;;;;;;;3.43;1.93;;;18.40;99.90;;;;;;4994212;28;20227;-68
2022/08/01 06:55:08;;;;;;;2.30;1.95;;;18.50;99.90;;;;;;4994308;28;20247;-67
2022/08/01 06:57:35;;;;;;;3.65;1.95;;;18.50;99.90;;;;;;4996153;28;20207;-73
2022/08/01 07:00:07;;;;;;;2.28;1.92;;;18.60;99.90;;;;;;4995681;28;20215;-73
2022/08/01 07:02:34;;;;;;;3.03;2.03;;;18.70;99.90;;;;;;4997628;28;20646;-73
2022/08/01 07:05:03;;;;;;;2.70;1.65;;;18.70;99.90;;;;;;4999010;28;20276;-72
2022/08/01 07:07:30;;;;;;;3.42;1.80;;;18.70;99.90;;;;;;4988346;28;20299;-73
2022/08/01 07:09:57;;;;;;;3.30;1.77;;;18.80;99.90;;;;;;4997551;28;20215;-68
2022/08/01 07:12:24;;;;;;;3.50;1.60;;;18.90;99.90;;;;;;4991002;28;20227;-70
2022/08/01 07:14:50;;;;;;;4.60;1.70;;;18.90;99.90;;;;;;4994262;28;20200;-75
2022/08/01 07:17:20;;;;;;;2.55;1.90;;;19.00;99.90;;;;;;4991212;28;20661;-69
2022/08/01 07:19:47;;;;;;;2.78;1.23;;;19.20;99.90;;;;;;4992067;28;20676;-69
2022/08/01 07:22:16;;;;;;;1.70;1.48;;;19.20;99.90;;;;;;4994248;28;20238;-70
2022/08/01 07:24:42;;;;;;;5.03;1.70;;;19.30;99.90;;;;;;4989487;28;20669;-69
2022/08/01 07:27:09;;;;;;;2.85;1.70;;;19.30;99.90;;;;;;4988532;28;20227;-69
2022/08/01 07:29:36;;;;;;;2.22;1.50;;;19.40;99.90;;;;;;4992044;28;20579;-69
2022/08/01 07:32:03;;;;;;;4.03;1.60;;;19.50;99.90;;;;;;4991570;28;20208;-70
2022/08/01 07:34:30;;;;;;;3.40;1.40;;;19.60;99.90;;;;;;4993217;28;20228;-67
2022/08/01 07:36:57;;;;;;;1.52;1.38;;;19.70;99.90;;;;;;4987106;28;20227;-70
2022/08/01 07:39:25;;;;;;;1.35;1.13;;;19.90;99.90;;;;;;4991240;28;20212;-71
2022/08/01 07:41:51;;;;;;;2.63;1.08;;;20.00;99.90;;;;;;4987419;28;20216;-69
2022/08/01 07:44:18;;;;;;;4.28;1.50;;;20.00;99.90;;;;;;4993565;28;20204;-69
2022/08/01 07:46:45;;;;;;;2.55;2.20;;;20.10;99.90;;;;;;4991468;28;20219;-68
2022/08/01 07:49:12;;;;;;;4.55;2.50;;;20.20;99.90;;;;;;4996805;28;20208;-70
2022/08/01 07:51:38;;;;;;;3.47;1.60;;;20.30;99.90;;;;;;4991149;28;20215;-69
2022/08/01 07:54:06;;;;;;;1.23;1.13;;;20.40;99.90;;;;;;4992796;28;20638;-70
2022/08/01 07:56:35;;;;;;;1.83;1.40;;;20.50;99.90;;;;;;4994062;28;20236;-69
2022/08/01 07:59:01;;;;;;;1.38;1.27;;;20.50;99.90;;;;;;4996408;28;20211;-70
2022/08/01 08:01:28;;;;;;;3.53;1.75;;;20.60;99.90;;;;;;4997827;28;20208;-69
2022/08/01 08:03:55;;;;;;;4.15;1.25;;;20.80;99.90;;;;;;4993613;28;20570;-69
2022/08/01 08:06:22;;;;;;;2.40;1.30;;;20.90;99.90;;;;;;4997290;28;20223;-68
2022/08/01 08:08:49;;;;;;;2.17;1.20;;;21.10;99.90;;;;;;4996546;28;20204;-67
2022/08/01 08:11:16;;;;;;;3.15;1.60;;;21.20;99.90;;;;;;4995624;28;20212;-69
2022/08/01 08:13:44;;;;;;;4.13;2.55;;;21.30;99.90;;;;;;4994020;28;20231;-69
2022/08/01 08:16:10;;;;;;;1.70;1.10;;;21.40;99.90;;;;;;4992827;28;20234;-68
2022/08/01 08:18:38;;;;;;;2.08;0.95;;;21.40;99.90;;;;;;4998350;28;20736;-68
2022/08/01 08:21:04;;;;;;;2.10;1.17;;;21.50;99.90;;;;;;5003224;28;20211;-69
2022/08/01 08:26:16;;;;;;;1.33;1.05;;;21.70;99.90;;;;;;4992233;28;20243;-69
2022/08/01 08:28:44;;;;;;;0.98;0.80;;;21.70;99.90;;;;;;4993409;28;20212;-69
2022/08/01 08:31:11;;;;;;;1.42;0.93;;;21.90;99.90;;;;;;4997149;28;20558;-68
2022/08/01 08:33:38;;;;;;;1.63;1.02;;;22.00;99.90;;;;;;4995089;28;20231;-69
2022/08/01 08:36:05;;;;;;;1.33;1.00;;;22.10;99.90;;;;;;4997340;28;20200;-68
2022/08/01 08:38:32;;;;;;;1.98;1.27;;;22.30;99.90;;;;;;4990770;28;20211;-69
2022/08/01 08:40:58;;;;;;;1.45;1.08;;;22.40;99.90;;;;;;4986993;28;20220;-69
2022/08/01 08:43:26;;;;;;;1.20;1.10;;;22.60;99.90;;;;;;4991973;28;20204;-69
2022/08/01 08:45:55;;;;;;;1.20;1.10;;;22.60;99.90;;;;;;4983014;28;20214;-69
2022/08/01 08:48:23;;;;;;;3.38;1.10;;;22.70;99.90;;;;;;4989994;28;20335;-69
2022/08/01 08:50:50;;;;;;;1.83;1.08;;;22.80;99.90;;;;;;4993464;28;20219;-70
2022/08/01 08:53:18;;;;;;;3.22;1.20;;;22.90;99.90;;;;;;4993698;28;20234;-69
2022/08/01 08:55:45;;;;;;;2.20;1.02;;;23.10;99.90;;;;;;4992802;28;20555;-70
2022/08/01 08:58:14;;;;;;;1.10;1.00;;;23.20;99.90;;;;;;4995550;28;20653;-69
2022/08/01 09:00:41;;;;;;;0.93;0.90;;;23.30;99.90;;;;;;4991512;28;20214;-69
2022/08/01 09:03:09;;;;;;;1.65;1.10;;;23.50;99.90;;;;;;4993153;28;20694;-69
2022/08/01 09:05:37;;;;;;;1.20;0.95;;;23.70;99.90;;;;;;4992287;28;20582;-70
2022/08/01 09:08:07;;;;;;;0.98;0.98;;;23.60;99.90;;;;;;4991688;28;20220;-68
2022/08/01 09:10:34;;;;;;;1.40;1.30;;;23.70;99.90;;;;;;4993041;28;20323;-69
2022/08/01 09:13:07;;;;;;;1.13;0.90;;;23.70;99.90;;;;;;4985696;28;20200;-68
2022/08/01 09:15:44;;;;;;;1.27;1.17;;;23.70;99.90;;;;;;4986154;28;20230;-69
2022/08/01 09:21:16;;;;;;;3.38;1.63;;;23.70;99.90;;;;;;5088899;28;20619;-70
2022/08/01 09:23:46;;;;;;;2.92;1.30;;;23.90;99.90;;;;;;5060937;28;20935;-69
2022/08/01 09:26:14;;;;;;;4.28;2.83;;;23.90;99.90;;;;;;5063203;28;20228;-67
2022/08/01 09:28:41;;;;;;;5.38;2.33;;;23.90;99.90;;;;;;5064475;28;20206;-68
2022/08/01 09:31:10;;;;;;;4.03;1.90;;;24.00;99.90;;;;;;5068752;28;20296;-69
2022/08/01 09:33:54;;;;;;;15.48;5.68;;;24.30;99.90;;;;;;5056665;28;20197;-69
2022/08/01 09:36:23;;;;;;;4.13;1.80;;;24.60;99.90;;;;;;5061187;28;20206;-68
2022/08/01 09:38:51;;;;;;;4.00;1.38;;;24.90;99.90;;;;;;5059189;28;20216;-69
2022/08/01 09:41:28;;;;;;;1.65;1.08;;;25.10;99.90;;;;;;5059163;28;20205;-68
2022/08/01 09:43:55;;;;;;;9.13;4.43;;;25.20;99.90;;;;;;5064454;28;20450;-70
2022/08/01 09:46:22;;;;;;;2.60;1.40;;;25.40;99.90;;;;;;5067671;28;20811;-67
2022/08/01 09:48:59;;;;;;;3.28;1.80;;;25.60;99.90;;;;;;5056679;28;20871;-68
2022/08/01 09:51:33;;;;;;;3.58;1.38;;;25.80;99.30;;;;;;5059768;28;20205;-74
2022/08/01 09:54:00;;;;;;;3.88;1.20;;;25.90;98.10;;;;;;5073156;28;20234;-67
2022/08/01 09:56:35;;;;;;;7.25;3.05;;;26.10;97.60;;;;;;5063246;28;20611;-68
2022/08/01 09:59:02;;;;;;;4.25;1.60;;;26.40;97.60;;;;;;5060333;28;20208;-70
2022/08/01 10:01:41;;;;;;;1.35;1.15;;;26.70;96.10;;;;;;5072867;28;20227;-70
2022/08/01 10:04:10;;;;;;;3.45;1.33;;;26.90;94.70;;;;;;5063984;28;20205;-69
2022/08/01 10:06:39;;;;;;;2.80;1.45;;;26.90;93.90;;;;;;5066346;28;20547;-70
2022/08/01 10:09:06;;;;;;;1.65;1.40;;;27.00;93.30;;;;;;5066623;28;20217;-69
2022/08/01 10:11:33;;;;;;;1.45;1.17;;;27.00;93.00;;;;;;5069257;28;20205;-72
2022/08/01 10:14:01;;;;;;;1.52;1.17;;;27.20;93.10;;;;;;5077313;28;20213;-71
2022/08/01 10:16:29;;;;;;;1.65;1.00;;;27.30;92.50;;;;;;5071047;28;20229;-71
2022/08/01 10:18:57;;;;;;;2.00;1.00;;;27.40;92.30;;;;;;5069673;28;20236;-71
2022/08/01 10:21:26;;;;;;;2.28;0.98;;;27.50;91.90;;;;;;5073284;28;20202;-70
2022/08/01 10:23:56;;;;;;;2.63;1.45;;;27.70;91.40;;;;;;5075096;28;20278;-72
2022/08/01 10:26:26;;;;;;;1.95;1.42;;;27.70;90.40;;;;;;5070219;28;20720;-71
2022/08/01 10:28:55;;;;;;;1.80;1.20;;;27.70;90.40;;;;;;5069501;28;20555;-70
2022/08/01 10:31:21;;;;;;;3.47;1.50;;;27.70;90.10;;;;;;5062255;28;20265;-70
2022/08/01 10:33:49;;;;;;;1.77;1.08;;;27.60;90.30;;;;;;5067492;28;20201;-70
2022/08/01 10:36:20;;;;;;;2.15;1.20;;;27.80;90.60;;;;;;5049224;28;20221;-70
2022/08/01 10:38:47;;;;;;;1.75;1.05;;;27.90;90.40;;;;;;5067074;28;20657;-70
2022/08/01 10:41:16;;;;;;;1.63;1.15;;;28.20;90.00;;;;;;5073572;28;20233;-71
2022/08/01 10:43:44;;;;;;;1.40;1.30;;;28.50;88.00;;;;;;5058071;28;20647;-70
2022/08/01 10:46:11;;;;;;;4.95;1.40;;;28.60;85.80;;;;;;5064109;28;20209;-70
2022/08/01 10:48:45;;;;;;;1.48;1.38;;;28.60;85.40;;;;;;5077336;28;20217;-70
2022/08/01 10:51:15;;;;;;;1.55;1.20;;;28.40;85.60;;;;;;5074540;28;20196;-70
2022/08/01 10:53:47;;;;;;;1.95;1.00;;;28.20;86.30;;;;;;5061721;28;20231;-70
2022/08/01 10:56:17;;;;;;;1.48;1.08;;;28.10;87.30;;;;;;5062779;28;20208;-71
2022/08/01 10:58:45;;;;;;;1.55;1.45;;;28.00;87.30;;;;;;5068102;28;20217;-71
2022/08/01 11:01:24;;;;;;;4.57;1.33;;;27.90;86.10;;;;;;5076126;28;20231;-71
2022/08/01 11:04:01;;;;;;;1.20;1.08;;;28.10;86.30;;;;;;5045786;28;20206;-70
2022/08/01 11:06:42;;;;;;;4.40;1.20;;;28.30;85.50;;;;;;5056076;28;20206;-70
2022/08/01 11:09:38;;;;;;;4.72;1.20;;;28.60;84.20;;;;;;5055187;28;20206;-70
2022/08/01 11:12:09;;;;;;;5.20;0.98;;;28.70;81.60;;;;;;5042648;28;20225;-70
2022/08/01 11:15:09;;;;;;;1.58;1.25;;;28.70;80.70;;;;;;5063479;28;20206;-71
2022/08/01 11:17:37;;;;;;;1.85;1.10;;;28.70;80.10;;;;;;5064508;28;20214;-72
2022/08/01 11:20:09;;;;;;;1.33;1.23;;;28.60;79.20;;;;;;5059220;28;20254;-70
2022/08/01 11:23:27;;;;;;;5.85;1.30;;;28.60;79.80;;;;;;5058091;28;20675;-70
2022/08/01 11:26:14;;;;;;;2.72;1.10;;;28.60;79.10;;;;;;5040336;28;20527;-70
2022/08/01 11:28:45;;;;;;;1.10;0.90;;;28.80;78.40;;;;;;5048310;28;20206;-69
2022/08/01 11:31:32;;;;;;;1.08;0.98;;;28.90;77.20;;;;;;5051040;28;20216;-70
2022/08/01 11:34:00;;;;;;;2.08;1.10;;;29.00;76.30;;;;;;5066197;28;20301;-69
2022/08/01 11:36:27;;;;;;;2.08;1.08;;;29.20;76.60;;;;;;5035133;28;20211;-69
2022/08/01 11:39:15;;;;;;;1.98;1.00;;;29.30;76.60;;;;;;5046107;28;20217;-70
2022/08/01 11:41:43;;;;;;;2.15;1.15;;;29.50;75.80;;;;;;5043575;28;20225;-69
2022/08/01 11:44:13;;;;;;;3.50;1.20;;;29.40;75.00;;;;;;5040068;28;20650;-69
2022/08/01 11:46:56;;;;;;;3.35;1.80;;;29.50;75.00;;;;;;5039746;28;20217;-68
2022/08/01 11:49:32;;;;;;;4.82;2.38;;;29.60;74.20;;;;;;5051993;28;20206;-69
2022/08/01 11:52:00;;;;;;;3.53;2.22;;;29.70;73.60;;;;;;5050089;28;20213;-69
2022/08/01 11:54:29;;;;;;;4.28;2.35;;;29.70;73.30;;;;;;5045643;28;20212;-68
2022/08/01 11:56:57;;;;;;;2.25;1.80;;;29.70;73.00;;;;;;5051538;28;20201;-69
2022/08/01 11:59:25;;;;;;;5.40;2.38;;;29.70;72.80;;;;;;5043606;28;20238;-68
2022/08/01 12:01:53;;;;;;;4.43;1.98;;;29.60;71.90;;;;;;5047071;28;20214;-68
2022/08/01 12:04:20;;;;;;;3.47;2.22;;;29.50;72.00;;;;;;5046382;28;20210;-69
2022/08/01 12:06:47;;;;;;;3.75;2.08;;;29.40;72.00;;;;;;5041253;28;20217;-68
2022/08/01 12:09:21;;;;;;;2.85;1.70;;;29.20;72.50;;;;;;5049519;28;20228;-68
2022/08/01 12:11:48;;;;;;;2.65;1.23;;;29.10;72.80;;;;;;5054239;28;20209;-70
2022/08/01 12:14:22;;;;;;;1.40;1.23;;;29.00;73.40;;;;;;5055229;28;20205;-71
2022/08/01 12:16:52;;;;;;;2.95;1.50;;;28.90;74.30;;;;;;5052903;28;20225;-71
2022/08/01 12:19:24;;;;;;;2.58;2.38;;;28.90;75.00;;;;;;5057553;28;20599;-71
2022/08/01 12:22:07;;;;;;;2.88;2.38;;;29.10;75.30;;;;;;5058227;28;20210;-71
2022/08/01 12:24:34;;;;;;;4.13;2.05;;;29.30;74.30;;;;;;5053558;28;20229;-71
2022/08/01 12:27:01;;;;;;;3.25;1.83;;;29.50;73.20;;;;;;5055804;28;20218;-70
2022/08/01 12:29:35;;;;;;;1.80;1.48;;;29.50;72.50;;;;;;5056002;28;20220;-71
2022/08/01 12:32:04;;;;;;;3.17;1.80;;;29.50;72.10;;;;;;5054756;28;20256;-72
2022/08/01 12:34:33;;;;;;;2.53;1.30;;;29.50;71.80;;;;;;5066938;28;20235;-69
2022/08/01 12:37:02;;;;;;;3.28;1.20;;;29.50;72.00;;;;;;5048489;28;20295;-71
2022/08/01 12:39:36;;;;;;;1.77;1.30;;;29.60;72.40;;;;;;5065142;28;20237;-71
2022/08/01 12:42:07;;;;;;;4.30;1.30;;;29.70;72.00;;;;;;5049086;28;20233;-71
2022/08/01 12:44:34;;;;;;;1.70;1.27;;;29.70;71.70;;;;;;5064752;28;20213;-73
2022/08/01 12:47:04;;;;;;;5.57;1.70;;;29.80;72.10;;;;;;5062021;28;20212;-72
2022/08/01 12:49:31;;;;;;;3.42;1.60;;;29.90;71.50;;;;;;5042684;28;20206;-71
2022/08/01 12:51:58;;;;;;;1.48;1.35;;;30.10;70.80;;;;;;5063655;28;20210;-70
2022/08/01 12:54:25;;;;;;;2.95;1.50;;;30.20;70.10;;;;;;5064182;28;20212;-71
2022/08/01 12:56:53;;;;;;;2.00;1.73;;;30.20;70.10;;;;;;5072943;28;20295;-72
2022/08/01 12:59:22;;;;;;;1.80;1.35;;;30.20;70.20;;;;;;5044664;28;20237;-70
2022/08/01 13:01:49;;;;;;;1.60;1.48;;;30.20;70.80;;;;;;5047372;28;20329;-71
2022/08/01 13:04:17;;;;;;;2.53;1.42;;;30.30;69.70;;;;;;5049158;28;20201;-70